Time;durP1;ratioP1;P1;durP2;ratioP2;P2;SDS_P1;SDS_P2;PMS_P1;PMS_P2;Temp;Humidity;BMP_temperature;BMP_pressure;BME280_temperature;BME280_humidity;BME280_pressure;Samples;Min_cycle;Max_cycle;Signal;HPM_P1;HPM_P2
2023/08/14 00:01:22;;;;;;;1.80;1.00;;;22.00;95.40;;;;;;5055646;28;20032;-88
2023/08/14 00:03:47;;;;;;;1.95;0.85;;;22.00;95.40;;;;;;5055661;28;20029;-89
2023/08/14 00:06:13;;;;;;;4.15;1.10;;;22.00;95.40;;;;;;5054353;28;20057;-89
2023/08/14 00:08:39;;;;;;;3.25;1.15;;;22.00;95.40;;;;;;5054326;28;20033;-88
2023/08/14 00:11:04;;;;;;;2.17;0.82;;;22.00;95.50;;;;;;5055233;28;20112;-89
2023/08/14 00:13:30;;;;;;;7.18;1.80;;;22.00;95.50;;;;;;5054928;28;20029;-88
2023/08/14 00:15:55;;;;;;;10.43;3.50;;;22.00;95.50;;;;;;5055163;28;20029;-89
2023/08/14 00:18:21;;;;;;;13.43;4.45;;;21.90;95.50;;;;;;5055452;28;20381;-88
2023/08/14 00:20:47;;;;;;;9.57;2.38;;;21.90;95.60;;;;;;5055254;28;20040;-88
2023/08/14 00:23:12;;;;;;;5.05;1.85;;;22.00;95.60;;;;;;5055236;28;20036;-88
2023/08/14 00:25:38;;;;;;;3.75;1.48;;;21.90;95.60;;;;;;5055566;28;20032;-88
2023/08/14 00:28:04;;;;;;;8.40;3.33;;;22.00;95.60;;;;;;5053716;28;20033;-88
2023/08/14 00:30:30;;;;;;;10.73;4.57;;;22.00;95.60;;;;;;5053884;28;20032;-88
2023/08/14 00:32:55;;;;;;;6.47;2.42;;;21.90;95.60;;;;;;5054972;28;20052;-88
2023/08/14 00:35:21;;;;;;;5.60;2.13;;;21.90;95.70;;;;;;5053458;28;20056;-88
2023/08/14 00:37:48;;;;;;;3.08;1.50;;;21.80;95.70;;;;;;5054793;28;20039;-88
2023/08/14 00:40:15;;;;;;;3.40;1.30;;;21.80;95.80;;;;;;5053628;28;20037;-87
2023/08/14 00:42:42;;;;;;;5.80;2.13;;;21.80;95.80;;;;;;5054745;28;20025;-88
2023/08/14 00:45:09;;;;;;;6.45;2.90;;;21.90;95.80;;;;;;5054841;28;20104;-88
2023/08/14 00:47:35;;;;;;;4.28;2.38;;;21.90;95.80;;;;;;5055205;28;20076;-88
2023/08/14 00:50:06;;;;;;;3.28;1.73;;;21.90;95.70;;;;;;5056492;28;20411;-87
2023/08/14 00:52:36;;;;;;;5.47;2.13;;;21.90;95.70;;;;;;5055105;28;20040;-88
2023/08/14 00:55:07;;;;;;;7.18;3.15;;;22.00;95.70;;;;;;5056893;28;20139;-88
2023/08/14 00:57:33;;;;;;;8.85;3.47;;;21.90;95.70;;;;;;5056102;28;20102;-88
2023/08/14 01:00:01;;;;;;;4.53;1.92;;;21.90;95.70;;;;;;5053553;28;20123;-87
2023/08/14 01:02:27;;;;;;;5.50;2.38;;;22.00;95.70;;;;;;5053892;28;20349;-87
2023/08/14 01:04:53;;;;;;;4.28;2.13;;;21.90;95.70;;;;;;5054574;28;20039;-88
2023/08/14 01:07:19;;;;;;;4.55;2.20;;;22.00;95.70;;;;;;5053900;28;20393;-87
2023/08/14 01:09:45;;;;;;;3.20;1.48;;;22.00;95.90;;;;;;5052749;28;20061;-87
2023/08/14 01:12:17;;;;;;;8.27;2.88;;;22.00;95.80;;;;;;5053568;28;20411;-87
2023/08/14 01:14:43;;;;;;;4.32;2.17;;;22.00;95.80;;;;;;5053653;28;20021;-88
2023/08/14 01:17:13;;;;;;;5.93;2.83;;;22.00;95.70;;;;;;5052840;28;20035;-88
2023/08/14 01:19:47;;;;;;;4.32;2.67;;;21.90;95.70;;;;;;5053820;28;20037;-88
2023/08/14 01:22:29;;;;;;;9.95;3.60;;;22.00;95.80;;;;;;5053984;28;20465;-88
2023/08/14 01:25:30;;;;;;;8.52;3.85;;;21.90;95.70;;;;;;5054027;28;20025;-88
2023/08/14 01:27:56;;;;;;;10.20;4.47;;;21.90;95.70;;;;;;5053870;28;20029;-88
2023/08/14 01:30:22;;;;;;;9.15;4.20;;;21.90;95.70;;;;;;5052351;28;20048;-88
2023/08/14 01:32:51;;;;;;;7.57;3.13;;;21.90;95.70;;;;;;5053861;28;20025;-87
2023/08/14 01:35:22;;;;;;;6.90;2.63;;;21.90;95.80;;;;;;5053695;28;20082;-88
2023/08/14 01:38:05;;;;;;;7.75;4.15;;;21.90;95.80;;;;;;5053744;28;20029;-88
2023/08/14 01:40:33;;;;;;;;;;;21.90;95.90;;;;;;5053950;28;20029;-89
2023/08/14 01:43:13;;;;;;;9.25;3.70;;;21.90;95.90;;;;;;5054192;28;19960;-89
2023/08/14 01:45:40;;;;;;;3.85;2.58;;;21.90;95.80;;;;;;5053469;28;20025;-88
2023/08/14 01:48:11;;;;;;;4.85;2.60;;;21.80;95.80;;;;;;5053534;28;20052;-87
2023/08/14 01:50:38;;;;;;;5.55;2.60;;;21.90;95.90;;;;;;5053446;28;20100;-88
2023/08/14 01:53:05;;;;;;;5.50;3.05;;;21.90;95.90;;;;;;5053851;28;20025;-88
2023/08/14 01:55:31;;;;;;;4.80;3.08;;;21.90;95.90;;;;;;5054013;28;20060;-88
2023/08/14 01:57:57;;;;;;;4.18;2.05;;;21.80;95.90;;;;;;5053826;28;20052;-88
2023/08/14 02:00:22;;;;;;;3.65;1.92;;;21.80;95.90;;;;;;5054182;28;20436;-89
2023/08/14 02:02:48;;;;;;;4.47;2.30;;;21.80;96.00;;;;;;5053954;28;20071;-89
2023/08/14 02:05:14;;;;;;;4.30;1.83;;;21.70;96.00;;;;;;5036136;28;20035;-88
2023/08/14 02:07:39;;;;;;;5.30;2.42;;;21.70;96.00;;;;;;5053676;28;20029;-89
2023/08/14 02:10:05;;;;;;;5.20;2.10;;;21.70;96.00;;;;;;5053983;28;20083;-89
2023/08/14 02:12:31;;;;;;;3.80;2.10;;;21.70;96.00;;;;;;5054665;28;20025;-90
2023/08/14 02:14:57;;;;;;;3.15;1.75;;;21.70;96.00;;;;;;5057981;28;20059;-89
2023/08/14 02:17:23;;;;;;;3.85;1.85;;;21.70;96.10;;;;;;5057575;28;20037;-89
2023/08/14 02:19:49;;;;;;;6.35;2.20;;;21.70;96.10;;;;;;5057586;28;20041;-89
2023/08/14 02:22:14;;;;;;;6.25;2.42;;;21.70;96.10;;;;;;5040218;28;20028;-89
2023/08/14 02:24:40;;;;;;;4.60;1.58;;;21.70;96.10;;;;;;5057942;28;20033;-89
2023/08/14 02:27:05;;;;;;;4.95;2.03;;;21.70;96.10;;;;;;5057467;28;20036;-89
2023/08/14 02:29:31;;;;;;;5.13;2.20;;;21.70;96.10;;;;;;5057686;28;20484;-89
2023/08/14 02:31:57;;;;;;;3.90;1.98;;;21.60;96.20;;;;;;5057256;28;20465;-89
2023/08/14 02:34:33;;;;;;;3.47;1.90;;;21.70;96.20;;;;;;5057507;28;20451;-89
2023/08/14 02:36:58;;;;;;;4.25;1.60;;;21.70;96.20;;;;;;5057939;28;20028;-88
2023/08/14 02:39:24;;;;;;;3.30;1.83;;;21.70;96.20;;;;;;5057570;28;20040;-89
2023/08/14 02:41:50;;;;;;;3.80;1.73;;;21.70;96.20;;;;;;5057059;28;20163;-89
2023/08/14 02:44:15;;;;;;;3.20;1.90;;;21.70;96.20;;;;;;5057269;28;20389;-89
2023/08/14 02:46:41;;;;;;;3.90;1.90;;;21.70;96.20;;;;;;5056860;28;20123;-89
2023/08/14 02:49:07;;;;;;;2.58;1.83;;;21.70;96.20;;;;;;5057022;28;20112;-88
2023/08/14 02:51:32;;;;;;;3.72;1.92;;;21.60;96.20;;;;;;5056917;28;20029;-89
2023/08/14 02:53:58;;;;;;;3.72;2.65;;;21.70;96.30;;;;;;5057298;28;20031;-89
2023/08/14 02:56:23;;;;;;;4.28;2.38;;;21.60;96.20;;;;;;5056289;28;20063;-89
2023/08/14 02:58:49;;;;;;;3.08;2.13;;;21.60;96.30;;;;;;5057029;28;20044;-89
2023/08/14 03:01:15;;;;;;;2.78;2.05;;;21.60;96.30;;;;;;5056823;28;20454;-90
2023/08/14 03:03:40;;;;;;;3.15;1.90;;;21.60;96.30;;;;;;5057608;28;20056;-88
2023/08/14 03:06:06;;;;;;;3.80;1.98;;;21.60;96.40;;;;;;5055949;28;20065;-88
2023/08/14 03:08:31;;;;;;;3.45;2.10;;;21.60;96.40;;;;;;5057263;28;20112;-89
2023/08/14 03:10:57;;;;;;;2.95;1.83;;;21.60;96.40;;;;;;5056409;28;20116;-89
2023/08/14 03:13:23;;;;;;;4.70;1.98;;;21.60;96.40;;;;;;5055428;28;20037;-89
2023/08/14 03:15:48;;;;;;;4.53;2.17;;;21.60;96.40;;;;;;5057054;28;20044;-90
2023/08/14 03:18:14;;;;;;;3.85;1.75;;;21.60;96.40;;;;;;5055571;28;20037;-89
2023/08/14 03:20:39;;;;;;;3.38;1.88;;;21.50;96.40;;;;;;5055847;28;20037;-89
2023/08/14 03:23:05;;;;;;;5.13;2.75;;;21.50;96.40;;;;;;5056268;28;20037;-89
2023/08/14 03:25:31;;;;;;;5.22;2.80;;;21.50;96.30;;;;;;5055666;28;20025;-89
2023/08/14 03:27:56;;;;;;;3.13;2.10;;;21.50;96.30;;;;;;5055888;28;20039;-88
2023/08/14 03:30:22;;;;;;;3.38;2.00;;;21.40;96.30;;;;;;5056563;28;20377;-89
2023/08/14 03:32:47;;;;;;;3.35;1.85;;;21.30;96.40;;;;;;5056299;28;20033;-83
2023/08/14 03:35:13;;;;;;;2.85;1.60;;;21.30;96.50;;;;;;5056120;28;20032;-89
2023/08/14 03:37:39;;;;;;;2.63;2.00;;;21.30;96.60;;;;;;5055455;28;20040;-88
2023/08/14 03:40:05;;;;;;;4.88;2.80;;;21.30;96.70;;;;;;5058011;28;20043;-89
2023/08/14 03:42:31;;;;;;;4.22;2.22;;;21.20;96.60;;;;;;5056034;28;20025;-89
2023/08/14 03:44:56;;;;;;;4.10;1.90;;;21.00;96.80;;;;;;5056110;28;20475;-89
2023/08/14 03:47:22;;;;;;;4.65;2.22;;;21.00;97.00;;;;;;5055863;28;20103;-90
2023/08/14 03:49:48;;;;;;;4.93;1.70;;;21.10;97.10;;;;;;5056607;28;20086;-88
2023/08/14 03:52:14;;;;;;;4.10;2.08;;;21.10;97.10;;;;;;5056274;28;20480;-89
2023/08/14 03:54:39;;;;;;;3.88;2.10;;;21.10;97.10;;;;;;5055845;28;20519;-89
2023/08/14 03:57:05;;;;;;;3.17;1.73;;;21.10;97.20;;;;;;5055834;28;20100;-88
2023/08/14 03:59:31;;;;;;;4.53;2.05;;;21.10;97.20;;;;;;5056100;28;20120;-89
2023/08/14 04:01:56;;;;;;;3.78;2.35;;;21.10;97.20;;;;;;5055696;28;20033;-89
2023/08/14 04:04:22;;;;;;;4.45;2.00;;;21.20;97.10;;;;;;5055241;28;20029;-89
2023/08/14 04:06:48;;;;;;;3.25;1.60;;;21.10;97.10;;;;;;5055730;28;20029;-89
2023/08/14 04:09:14;;;;;;;3.33;1.67;;;21.10;97.20;;;;;;5037743;28;20128;-89
2023/08/14 04:11:40;;;;;;;2.83;1.42;;;21.10;97.20;;;;;;5055223;28;20061;-89
2023/08/14 04:14:06;;;;;;;3.08;1.55;;;21.10;97.20;;;;;;5054538;28;20151;-88
2023/08/14 04:16:43;;;;;;;3.03;1.50;;;21.10;97.20;;;;;;5055479;28;20403;-89
2023/08/14 04:19:17;;;;;;;2.90;1.67;;;21.10;97.30;;;;;;5055648;28;20041;-89
2023/08/14 04:21:43;;;;;;;3.03;1.60;;;21.10;97.30;;;;;;5055625;28;20021;-88
2023/08/14 04:24:09;;;;;;;2.63;1.58;;;21.20;97.30;;;;;;5055361;28;20382;-88
2023/08/14 04:26:36;;;;;;;4.35;1.88;;;21.20;97.30;;;;;;5055657;28;20052;-88
2023/08/14 04:29:04;;;;;;;3.50;1.50;;;21.20;97.30;;;;;;5054968;28;20029;-88
2023/08/14 04:31:29;;;;;;;4.25;2.30;;;21.20;97.30;;;;;;5055240;28;20036;-89
2023/08/14 04:33:55;;;;;;;3.63;1.70;;;21.10;97.20;;;;;;5054886;28;20030;-89
2023/08/14 04:36:21;;;;;;;3.65;1.83;;;21.20;97.20;;;;;;5054883;28;20036;-88
2023/08/14 04:38:46;;;;;;;3.35;1.90;;;21.10;97.20;;;;;;5070697;28;20036;-91
2023/08/14 04:41:12;;;;;;;3.53;1.92;;;21.10;97.20;;;;;;5054875;28;20544;-90
2023/08/14 04:43:37;;;;;;;3.95;1.60;;;21.10;97.20;;;;;;5054829;28;20025;-91
2023/08/14 04:46:09;;;;;;;3.45;2.00;;;21.10;97.20;;;;;;5054427;28;20100;-91
2023/08/14 04:48:35;;;;;;;2.53;1.25;;;21.10;97.20;;;;;;5055156;28;20394;-91
2023/08/14 04:51:01;;;;;;;2.88;1.58;;;21.10;97.30;;;;;;5055527;28;20025;-91
2023/08/14 04:53:26;;;;;;;3.67;1.70;;;21.10;97.30;;;;;;5055058;28;20458;-90
2023/08/14 04:55:52;;;;;;;2.88;1.40;;;21.10;97.30;;;;;;5055748;28;20083;-91
2023/08/14 04:58:18;;;;;;;4.00;1.80;;;21.10;97.30;;;;;;5055056;28;20032;-91
2023/08/14 05:00:43;;;;;;;5.78;1.77;;;21.20;97.30;;;;;;5055517;28;20041;-91
2023/08/14 05:03:09;;;;;;;4.03;1.95;;;21.20;97.30;;;;;;5055029;28;20029;-91
2023/08/14 05:05:34;;;;;;;3.38;1.80;;;21.20;97.30;;;;;;5054525;28;20060;-91
2023/08/14 05:08:00;;;;;;;2.45;1.50;;;21.30;97.30;;;;;;5056139;28;20111;-90
2023/08/14 05:10:26;;;;;;;5.35;2.30;;;21.30;97.30;;;;;;5054314;28;20057;-92
2023/08/14 05:12:51;;;;;;;2.83;1.60;;;21.30;97.20;;;;;;5055043;28;20108;-92
2023/08/14 05:15:17;;;;;;;2.45;1.70;;;21.30;97.20;;;;;;5055135;28;20171;-90
2023/08/14 05:17:42;;;;;;;3.67;1.60;;;21.40;97.20;;;;;;5054563;28;20389;-90
2023/08/14 05:20:09;;;;;;;2.50;1.77;;;21.40;97.20;;;;;;5054880;28;20040;-91
2023/08/14 05:22:35;;;;;;;2.88;1.90;;;21.40;97.20;;;;;;5055170;28;20041;-92
2023/08/14 05:25:00;;;;;;;3.75;2.13;;;21.40;97.20;;;;;;5055219;28;20079;-92
2023/08/14 05:27:26;;;;;;;5.10;2.53;;;21.40;97.20;;;;;;5054355;28;20384;-91
2023/08/14 05:29:52;;;;;;;3.83;2.30;;;21.40;97.10;;;;;;5053704;28;20047;-92
2023/08/14 05:32:18;;;;;;;4.78;2.58;;;21.40;97.10;;;;;;5054948;28;20029;-91
2023/08/14 05:34:43;;;;;;;3.08;2.42;;;21.30;97.20;;;;;;5055365;28;20036;-90
2023/08/14 05:37:09;;;;;;;5.30;2.13;;;21.40;97.30;;;;;;5055336;28;20036;-92
2023/08/14 05:39:35;;;;;;;3.63;2.03;;;21.30;97.30;;;;;;5055908;28;20037;-90
2023/08/14 05:42:00;;;;;;;2.67;2.47;;;21.30;97.30;;;;;;5055561;28;20497;-91
2023/08/14 05:44:26;;;;;;;4.03;2.58;;;21.30;97.30;;;;;;5056287;28;20025;-91
2023/08/14 05:46:51;;;;;;;4.53;2.33;;;21.40;97.30;;;;;;5055942;28;20115;-91
2023/08/14 05:49:17;;;;;;;3.88;2.17;;;21.50;97.60;;;;;;5059971;28;20040;-90
2023/08/14 05:51:44;;;;;;;3.92;2.42;;;21.40;97.40;;;;;;5060141;28;20041;-90
2023/08/14 05:54:09;;;;;;;3.75;2.67;;;21.40;97.60;;;;;;5060098;28;20033;-91
2023/08/14 05:56:35;;;;;;;4.18;2.15;;;21.50;97.30;;;;;;5059533;28;20084;-91
2023/08/14 05:59:01;;;;;;;3.00;1.67;;;21.50;97.30;;;;;;5058260;28;20098;-91
2023/08/14 06:01:26;;;;;;;4.70;2.88;;;21.40;97.30;;;;;;5060196;28;20060;-90
2023/08/14 06:03:54;;;;;;;7.30;3.75;;;21.40;97.40;;;;;;5058185;28;20056;-90
2023/08/14 06:06:20;;;;;;;5.03;2.78;;;21.40;97.50;;;;;;5060236;28;20061;-90
2023/08/14 06:08:45;;;;;;;3.28;1.80;;;21.40;97.60;;;;;;5058971;28;20100;-90
2023/08/14 06:11:11;;;;;;;2.17;1.88;;;21.40;97.50;;;;;;5057932;28;20098;-91
2023/08/14 06:13:36;;;;;;;5.85;3.75;;;21.40;97.50;;;;;;5059864;28;20055;-91
2023/08/14 06:16:02;;;;;;;2.97;2.10;;;21.50;97.50;;;;;;5058612;28;20171;-85
2023/08/14 06:18:28;;;;;;;3.90;2.60;;;21.50;97.50;;;;;;5057690;28;20124;-88
2023/08/14 06:20:54;;;;;;;2.75;1.90;;;21.50;97.50;;;;;;5058650;28;20048;-88
2023/08/14 06:23:20;;;;;;;4.63;2.83;;;21.50;97.50;;;;;;5058908;28;20072;-89
2023/08/14 06:25:45;;;;;;;2.85;1.60;;;21.50;97.50;;;;;;5058292;28;20029;-89
2023/08/14 06:28:11;;;;;;;4.72;2.75;;;21.60;97.50;;;;;;5057678;28;20060;-88
2023/08/14 06:30:37;;;;;;;5.43;2.58;;;21.60;97.50;;;;;;5058390;28;20389;-89
2023/08/14 06:33:03;;;;;;;4.60;2.42;;;21.60;97.50;;;;;;5058083;28;20068;-82
2023/08/14 06:35:28;;;;;;;6.68;3.63;;;21.60;97.50;;;;;;5058182;28;20033;-89
2023/08/14 06:37:54;;;;;;;3.88;2.30;;;21.60;97.60;;;;;;5058621;28;20033;-85
2023/08/14 06:40:20;;;;;;;5.30;3.35;;;21.50;97.60;;;;;;5056992;28;20037;-86
2023/08/14 06:42:45;;;;;;;6.45;3.10;;;21.60;97.60;;;;;;5056035;28;20036;-86
2023/08/14 06:45:11;;;;;;;3.25;1.83;;;21.50;97.60;;;;;;5056252;28;20033;-85
2023/08/14 06:47:44;;;;;;;5.40;2.53;;;21.50;97.60;;;;;;5056545;28;20060;-86
2023/08/14 06:50:11;;;;;;;6.65;2.75;;;21.50;97.60;;;;;;5057173;28;20060;-86
2023/08/14 06:52:36;;;;;;;3.55;2.53;;;21.60;97.60;;;;;;5056714;28;20112;-86
2023/08/14 06:55:02;;;;;;;7.10;3.80;;;21.50;97.70;;;;;;5056883;28;20422;-86
2023/08/14 06:57:28;;;;;;;5.22;2.60;;;21.50;97.70;;;;;;5055900;28;20037;-85
2023/08/14 06:59:53;;;;;;;5.13;3.47;;;21.60;97.80;;;;;;5055023;28;20041;-86
2023/08/14 07:02:19;;;;;;;11.77;5.32;;;21.60;97.90;;;;;;5056626;28;20151;-86
2023/08/14 07:04:45;;;;;;;8.98;5.30;;;21.70;98.20;;;;;;5056462;28;20090;-86
2023/08/14 07:07:10;;;;;;;9.20;4.82;;;21.70;98.60;;;;;;5056414;28;20102;-87
2023/08/14 07:09:36;;;;;;;7.85;3.95;;;21.60;98.80;;;;;;5056677;28;20465;-86
2023/08/14 07:12:02;;;;;;;9.45;5.57;;;21.70;99.00;;;;;;5055614;28;20040;-86
2023/08/14 07:14:28;;;;;;;10.15;5.65;;;21.70;99.30;;;;;;5056237;28;20036;-86
2023/08/14 07:16:53;;;;;;;8.70;5.25;;;21.80;99.50;;;;;;5056572;28;20029;-87
2023/08/14 07:19:19;;;;;;;9.85;4.50;;;21.90;99.50;;;;;;5056248;28;20492;-87
2023/08/14 07:21:45;;;;;;;9.07;3.83;;;22.00;99.30;;;;;;5056509;28;20033;-87
2023/08/14 07:24:12;;;;;;;10.20;4.15;;;22.00;99.00;;;;;;5056156;28;20044;-88
2023/08/14 07:26:39;;;;;;;11.77;4.20;;;22.00;99.00;;;;;;5056416;28;20472;-88
2023/08/14 07:29:05;;;;;;;10.95;4.35;;;22.00;98.80;;;;;;5056544;28;20040;-87
2023/08/14 07:31:30;;;;;;;12.07;5.10;;;22.00;99.20;;;;;;5056684;28;20033;-88
2023/08/14 07:33:56;;;;;;;10.50;5.05;;;22.10;99.20;;;;;;5056388;28;20028;-89
2023/08/14 07:36:22;;;;;;;10.73;4.63;;;22.10;99.20;;;;;;5056233;28;20040;-89
2023/08/14 07:38:47;;;;;;;10.45;4.28;;;22.20;98.90;;;;;;5056731;28;20119;-89
2023/08/14 07:41:13;;;;;;;7.53;3.00;;;22.30;98.30;;;;;;5056331;28;20465;-87
2023/08/14 07:43:39;;;;;;;8.55;2.78;;;22.30;98.10;;;;;;5055984;28;20035;-87
2023/08/14 07:46:04;;;;;;;8.35;3.30;;;22.30;98.00;;;;;;5055745;28;20031;-88
2023/08/14 07:48:30;;;;;;;10.10;3.63;;;22.30;98.00;;;;;;5055422;28;20107;-84
2023/08/14 07:50:55;;;;;;;4.78;1.90;;;22.20;97.90;;;;;;5055803;28;20029;-87
2023/08/14 07:53:21;;;;;;;8.43;2.80;;;22.30;98.00;;;;;;5055972;28;20037;-86
2023/08/14 07:55:49;;;;;;;7.53;2.63;;;22.30;98.00;;;;;;5055557;28;20104;-88
2023/08/14 07:58:17;;;;;;;7.65;2.70;;;22.40;98.00;;;;;;5055602;28;20033;-87
2023/08/14 08:00:43;;;;;;;11.52;3.30;;;22.40;97.90;;;;;;5054759;28;20040;-87
2023/08/14 08:03:09;;;;;;;11.95;3.97;;;22.40;97.90;;;;;;5055864;28;20025;-88
2023/08/14 08:05:34;;;;;;;6.85;2.80;;;22.40;98.00;;;;;;5055405;28;20032;-87
2023/08/14 08:08:01;;;;;;;8.52;3.67;;;22.40;97.90;;;;;;5055707;28;20164;-87
2023/08/14 08:10:27;;;;;;;9.73;3.65;;;22.40;98.10;;;;;;5054431;28;20029;-88
2023/08/14 08:12:53;;;;;;;11.00;3.85;;;22.50;97.90;;;;;;5055669;28;20053;-87
2023/08/14 08:15:18;;;;;;;9.40;3.33;;;22.60;97.60;;;;;;5054515;28;20110;-88
2023/08/14 08:17:45;;;;;;;6.68;2.67;;;22.80;97.30;;;;;;5055339;28;20168;-87
2023/08/14 08:20:11;;;;;;;9.55;3.00;;;22.90;97.30;;;;;;5055716;28;20076;-87
2023/08/14 08:22:37;;;;;;;14.02;5.68;;;23.10;97.30;;;;;;5037573;28;20102;-88
2023/08/14 08:25:03;;;;;;;10.95;3.88;;;23.20;97.30;;;;;;5054156;28;20033;-87
2023/08/14 08:27:29;;;;;;;9.43;3.00;;;23.20;97.00;;;;;;5055218;28;20112;-89
2023/08/14 08:29:54;;;;;;;12.13;4.53;;;23.30;96.50;;;;;;5056131;28;20521;-88
2023/08/14 08:32:20;;;;;;;11.80;4.50;;;23.40;96.50;;;;;;5055435;28;20029;-87
2023/08/14 08:34:46;;;;;;;11.18;3.95;;;23.50;96.50;;;;;;5054898;28;20021;-88
2023/08/14 08:37:11;;;;;;;12.13;4.13;;;23.50;96.30;;;;;;5055476;28;20057;-86
2023/08/14 08:39:37;;;;;;;12.82;4.40;;;23.60;96.10;;;;;;5053660;28;20037;-88
2023/08/14 08:42:05;;;;;;;8.45;3.45;;;23.50;96.10;;;;;;5055561;28;20029;-89
2023/08/14 08:44:36;;;;;;;14.98;4.10;;;23.60;96.10;;;;;;5037747;28;20381;-88
2023/08/14 08:47:12;;;;;;;11.60;3.30;;;23.60;95.30;;;;;;5054683;28;20132;-88
2023/08/14 08:49:40;;;;;;;10.73;3.30;;;23.70;95.60;;;;;;5055747;28;20616;-89
2023/08/14 08:52:06;;;;;;;8.40;2.83;;;23.80;95.40;;;;;;5055115;28;20051;-88
2023/08/14 08:54:33;;;;;;;10.70;3.35;;;23.90;94.70;;;;;;5054692;28;20025;-86
2023/08/14 08:57:04;;;;;;;8.98;2.72;;;24.00;95.00;;;;;;5054602;28;20074;-88
2023/08/14 08:59:32;;;;;;;10.18;3.00;;;24.10;95.40;;;;;;5055084;28;20029;-88
2023/08/14 09:01:58;;;;;;;7.63;2.58;;;24.20;95.50;;;;;;5054138;28;20491;-89
2023/08/14 09:04:24;;;;;;;9.15;2.80;;;24.30;95.80;;;;;;5055347;28;20048;-86
2023/08/14 09:06:49;;;;;;;8.93;2.97;;;24.40;96.20;;;;;;5055353;28;20082;-87
2023/08/14 09:09:16;;;;;;;7.18;2.80;;;24.50;95.90;;;;;;5055309;28;20037;-86
2023/08/14 09:11:42;;;;;;;10.35;3.10;;;24.60;95.80;;;;;;5055930;28;20424;-88
2023/08/14 09:14:08;;;;;;;9.40;2.60;;;24.70;95.50;;;;;;5055486;28;20080;-89
2023/08/14 09:16:34;;;;;;;12.55;3.10;;;24.80;95.30;;;;;;5056235;28;20064;-85
2023/08/14 09:19:00;;;;;;;7.10;2.00;;;24.90;94.70;;;;;;5056682;28;20028;-82
2023/08/14 09:21:28;;;;;;;8.93;2.70;;;25.00;94.50;;;;;;5056843;28;20033;-88
2023/08/14 09:23:54;;;;;;;13.77;2.95;;;25.00;94.30;;;;;;5054668;28;20029;-88
2023/08/14 09:26:20;;;;;;;11.05;2.78;;;25.00;94.40;;;;;;5055249;28;20027;-88
2023/08/14 09:28:47;;;;;;;5.80;1.98;;;25.10;93.60;;;;;;5055812;28;20107;-89
2023/08/14 09:31:13;;;;;;;9.52;2.22;;;25.10;93.30;;;;;;5055112;28;20029;-84
2023/08/14 09:33:45;;;;;;;8.30;2.38;;;25.20;94.60;;;;;;5055086;28;20029;-88
2023/08/14 09:36:12;;;;;;;8.55;2.20;;;25.30;94.50;;;;;;5054262;28;20075;-88
2023/08/14 09:38:39;;;;;;;9.38;2.70;;;25.50;93.90;;;;;;5054221;28;20033;-89
2023/08/14 09:41:05;;;;;;;10.73;2.75;;;25.60;92.80;;;;;;5052854;28;20037;-89
2023/08/14 09:43:32;;;;;;;10.73;2.42;;;25.60;92.90;;;;;;5053072;28;20036;-90
2023/08/14 09:46:00;;;;;;;8.57;2.30;;;25.60;92.00;;;;;;5054341;28;20033;-90
2023/08/14 09:48:46;;;;;;;11.85;2.85;;;25.70;92.30;;;;;;5052680;28;20049;-91
2023/08/14 09:51:14;;;;;;;7.72;2.10;;;25.70;91.40;;;;;;5054584;28;20037;-89
2023/08/14 09:53:56;;;;;;;7.78;2.58;;;25.60;91.40;;;;;;5053867;28;20025;-88
2023/08/14 09:56:22;;;;;;;8.93;2.20;;;25.70;92.00;;;;;;5053839;28;20062;-89
2023/08/14 09:58:49;;;;;;;6.45;2.20;;;25.80;92.00;;;;;;5053737;28;20061;-86
2023/08/14 10:01:19;;;;;;;8.20;1.85;;;26.10;92.10;;;;;;5053394;28;20532;-86
2023/08/14 10:03:52;;;;;;;6.40;1.77;;;26.10;91.90;;;;;;5054304;28;20048;-89
2023/08/14 10:06:21;;;;;;;6.72;1.60;;;26.20;92.20;;;;;;5053951;28;20442;-87
2023/08/14 10:08:50;;;;;;;5.97;1.80;;;26.20;92.00;;;;;;5053081;28;20025;-88
2023/08/14 10:11:17;;;;;;;9.10;1.75;;;26.10;91.00;;;;;;5053804;28;20467;-88
2023/08/14 10:13:49;;;;;;;6.10;1.30;;;26.10;90.50;;;;;;5053870;28;20492;-89
2023/08/14 10:16:26;;;;;;;4.63;0.93;;;26.20;90.80;;;;;;5054289;28;20025;-88
2023/08/14 10:18:54;;;;;;;6.18;1.20;;;26.40;91.30;;;;;;5053958;28;20037;-90
2023/08/14 10:21:22;;;;;;;6.75;1.20;;;26.40;91.00;;;;;;5053997;28;20505;-89
2023/08/14 10:23:49;;;;;;;7.10;1.20;;;26.50;91.20;;;;;;5054161;28;20025;-89
2023/08/14 10:26:15;;;;;;;4.88;1.50;;;26.70;88.10;;;;;;5052689;28;20029;-89
2023/08/14 10:28:42;;;;;;;5.65;1.13;;;26.70;85.20;;;;;;5053607;28;20039;-89
2023/08/14 10:31:09;;;;;;;3.25;0.90;;;26.80;86.00;;;;;;5052428;28;20037;-89
2023/08/14 10:33:37;;;;;;;4.47;0.90;;;27.00;87.60;;;;;;5055383;28;20025;-88
2023/08/14 10:36:02;;;;;;;7.15;1.15;;;27.00;87.10;;;;;;5057754;28;20075;-89
2023/08/14 10:38:41;;;;;;;6.32;1.25;;;27.10;86.70;;;;;;5058517;28;20028;-89
2023/08/14 10:41:07;;;;;;;4.60;1.20;;;27.10;82.60;;;;;;5057093;28;20068;-89
2023/08/14 10:43:33;;;;;;;5.80;1.00;;;27.00;82.50;;;;;;5057623;28;20029;-88
2023/08/14 10:45:59;;;;;;;6.38;1.02;;;26.90;83.50;;;;;;5058314;28;20488;-90
2023/08/14 10:48:24;;;;;;;3.85;0.95;;;27.00;84.10;;;;;;5057085;28;20053;-89
2023/08/14 10:50:59;;;;;;;3.10;1.00;;;26.90;84.40;;;;;;5057349;28;20028;-90
2023/08/14 10:53:25;;;;;;;4.75;1.13;;;27.10;85.00;;;;;;5057741;28;20052;-87
2023/08/14 10:55:52;;;;;;;5.55;1.10;;;27.20;82.70;;;;;;5057298;28;20466;-89
2023/08/14 10:58:35;;;;;;;3.20;0.88;;;27.30;83.50;;;;;;5057460;28;20033;-89
2023/08/14 11:01:05;;;;;;;2.95;0.70;;;27.30;83.80;;;;;;5057375;28;20037;-88
2023/08/14 11:03:54;;;;;;;4.47;0.60;;;27.30;82.30;;;;;;5056664;28;20549;-89
2023/08/14 11:06:28;;;;;;;5.78;0.82;;;27.50;82.20;;;;;;5056344;28;20033;-89
2023/08/14 11:09:04;;;;;;;3.13;0.55;;;27.70;80.70;;;;;;5057445;28;20025;-89
2023/08/14 11:11:30;;;;;;;3.33;0.85;;;27.80;80.40;;;;;;5056719;28;20461;-86
2023/08/14 11:13:56;;;;;;;3.42;0.32;;;27.80;80.30;;;;;;5057096;28;20100;-89
2023/08/14 11:16:22;;;;;;;2.05;0.68;;;27.80;77.10;;;;;;5056475;28;20036;-90
2023/08/14 11:18:48;;;;;;;3.13;0.68;;;27.70;75.50;;;;;;5056984;28;20067;-87
2023/08/14 11:21:14;;;;;;;4.07;1.20;;;27.50;76.10;;;;;;5056394;28;20072;-89
2023/08/14 11:23:39;;;;;;;3.72;0.90;;;27.50;77.00;;;;;;5056791;28;20025;-90
2023/08/14 11:26:05;;;;;;;4.35;0.93;;;27.60;76.00;;;;;;5056841;28;20458;-87
2023/08/14 11:28:35;;;;;;;4.18;0.80;;;27.70;79.50;;;;;;5056168;28;20025;-90
2023/08/14 11:31:01;;;;;;;2.97;0.80;;;27.80;77.50;;;;;;5055575;28;20033;-87
2023/08/14 11:33:27;;;;;;;2.67;0.60;;;27.90;78.20;;;;;;5056743;28;20032;-90
2023/08/14 11:35:53;;;;;;;3.50;0.80;;;28.00;76.50;;;;;;5057305;28;20441;-87
2023/08/14 11:38:22;;;;;;;3.60;0.70;;;28.00;77.90;;;;;;5057052;28;20025;-89
2023/08/14 11:40:48;;;;;;;3.42;1.00;;;27.80;77.00;;;;;;5055296;28;20041;-90
2023/08/14 11:43:15;;;;;;;4.10;0.90;;;27.80;76.80;;;;;;5056150;28;20033;-86
2023/08/14 11:45:41;;;;;;;4.38;0.80;;;27.90;75.30;;;;;;5055919;28;20382;-90
2023/08/14 11:48:08;;;;;;;5.85;0.85;;;28.10;76.20;;;;;;5056304;28;20045;-90
2023/08/14 11:50:34;;;;;;;4.80;0.95;;;28.20;75.10;;;;;;5056320;28;20040;-92
2023/08/14 11:53:00;;;;;;;3.72;1.05;;;28.20;73.10;;;;;;5056232;28;20386;-90
2023/08/14 11:55:27;;;;;;;7.93;0.85;;;28.30;73.00;;;;;;5056895;28;20166;-91
2023/08/14 11:57:53;;;;;;;2.95;0.65;;;28.30;71.80;;;;;;5056163;28;20370;-92
2023/08/14 12:00:20;;;;;;;4.13;0.90;;;28.30;72.90;;;;;;5055620;28;20037;-92
2023/08/14 12:02:47;;;;;;;4.20;0.70;;;28.20;73.80;;;;;;5056200;28;20491;-92
2023/08/14 12:05:12;;;;;;;6.70;1.33;;;28.30;75.60;;;;;;5056488;28;20102;-88
2023/08/14 12:07:42;;;;;;;4.70;1.02;;;28.40;74.50;;;;;;5055551;28;20103;-90
2023/08/14 12:10:08;;;;;;;2.80;0.70;;;28.40;75.40;;;;;;5056205;28;20094;-91
2023/08/14 12:12:34;;;;;;;5.30;0.95;;;28.50;75.80;;;;;;5056563;28;20029;-85
2023/08/14 12:15:00;;;;;;;4.13;0.95;;;28.60;75.90;;;;;;5056779;28;20029;-90
2023/08/14 12:17:26;;;;;;;5.45;0.70;;;28.80;74.10;;;;;;5056777;28;20461;-89
2023/08/14 12:19:53;;;;;;;5.38;1.00;;;28.80;72.10;;;;;;5056223;28;20033;-89
2023/08/14 12:22:21;;;;;;;3.60;0.77;;;28.90;71.10;;;;;;5056768;28;20436;-91
2023/08/14 12:24:47;;;;;;;2.92;0.60;;;28.90;71.20;;;;;;5056129;28;20082;-91
2023/08/14 12:27:25;;;;;;;4.75;0.77;;;29.00;72.40;;;;;;5056900;28;20144;-89
2023/08/14 12:29:51;;;;;;;4.93;0.57;;;29.00;72.20;;;;;;5055781;28;20107;-90
2023/08/14 12:32:18;;;;;;;3.85;0.80;;;29.00;71.60;;;;;;5055454;28;20060;-91
2023/08/14 12:34:44;;;;;;;2.92;0.65;;;29.00;71.90;;;;;;5055845;28;20507;-91
2023/08/14 12:37:15;;;;;;;2.75;0.50;;;28.80;71.60;;;;;;5056035;28;20021;-91
2023/08/14 12:39:42;;;;;;;3.17;0.70;;;28.80;74.60;;;;;;5055673;28;20037;-92
2023/08/14 12:42:11;;;;;;;3.47;0.75;;;28.90;71.70;;;;;;5054998;28;20052;-90
2023/08/14 12:44:36;;;;;;;3.78;0.65;;;29.10;71.70;;;;;;5055285;28;20357;-91